sensor_id;sensor_type;location;lat;lon;timestamp;P1;durP1;ratioP1;P2;durP2;ratioP2
84682;SDS011;74905;44.124;18.116;2024-02-15T00:00:12;136.63;;;47.80;;
84682;SDS011;74905;44.124;18.116;2024-02-15T00:02:38;139.98;;;49.75;;
84682;SDS011;74905;44.124;18.116;2024-02-15T00:05:04;138.35;;;50.63;;
84682;SDS011;74905;44.124;18.116;2024-02-15T00:07:30;174.30;;;57.10;;
84682;SDS011;74905;44.124;18.116;2024-02-15T00:09:55;150.02;;;52.08;;
84682;SDS011;74905;44.124;18.116;2024-02-15T00:12:21;137.52;;;48.15;;
84682;SDS011;74905;44.124;18.116;2024-02-15T00:14:47;143.30;;;48.58;;
84682;SDS011;74905;44.124;18.116;2024-02-15T00:19:38;110.00;;;39.85;;
84682;SDS011;74905;44.124;18.116;2024-02-15T00:22:07;108.13;;;36.55;;
84682;SDS011;74905;44.124;18.116;2024-02-15T00:24:32;99.15;;;35.83;;
84682;SDS011;74905;44.124;18.116;2024-02-15T00:26:58;118.75;;;42.90;;
84682;SDS011;74905;44.124;18.116;2024-02-15T00:29:23;120.30;;;40.92;;
84682;SDS011;74905;44.124;18.116;2024-02-15T00:31:50;128.82;;;41.72;;
84682;SDS011;74905;44.124;18.116;2024-02-15T00:34:15;110.97;;;40.47;;
84682;SDS011;74905;44.124;18.116;2024-02-15T00:36:42;114.97;;;41.05;;
84682;SDS011;74905;44.124;18.116;2024-02-15T00:39:09;127.88;;;42.00;;
84682;SDS011;74905;44.124;18.116;2024-02-15T00:41:37;109.13;;;42.30;;
84682;SDS011;74905;44.124;18.116;2024-02-15T00:44:07;150.55;;;52.35;;
84682;SDS011;74905;44.124;18.116;2024-02-15T00:46:33;150.02;;;52.22;;
84682;SDS011;74905;44.124;18.116;2024-02-15T00:49:00;159.07;;;52.47;;
84682;SDS011;74905;44.124;18.116;2024-02-15T00:51:25;233.00;;;75.57;;
84682;SDS011;74905;44.124;18.116;2024-02-15T00:53:51;223.30;;;72.45;;
84682;SDS011;74905;44.124;18.116;2024-02-15T00:56:16;159.10;;;50.58;;
84682;SDS011;74905;44.124;18.116;2024-02-15T00:58:42;144.07;;;48.13;;
84682;SDS011;74905;44.124;18.116;2024-02-15T01:01:08;145.18;;;48.92;;
84682;SDS011;74905;44.124;18.116;2024-02-15T01:03:35;113.53;;;38.55;;
84682;SDS011;74905;44.124;18.116;2024-02-15T01:06:01;102.22;;;37.55;;
84682;SDS011;74905;44.124;18.116;2024-02-15T01:08:27;120.68;;;41.97;;
84682;SDS011;74905;44.124;18.116;2024-02-15T01:10:53;117.82;;;39.42;;
84682;SDS011;74905;44.124;18.116;2024-02-15T01:13:19;124.85;;;42.42;;
84682;SDS011;74905;44.124;18.116;2024-02-15T01:15:45;131.57;;;45.42;;
84682;SDS011;74905;44.124;18.116;2024-02-15T01:18:11;122.82;;;43.13;;
84682;SDS011;74905;44.124;18.116;2024-02-15T01:20:37;126.38;;;43.38;;
84682;SDS011;74905;44.124;18.116;2024-02-15T01:23:02;126.95;;;45.47;;
84682;SDS011;74905;44.124;18.116;2024-02-15T01:25:30;127.65;;;46.17;;
84682;SDS011;74905;44.124;18.116;2024-02-15T01:27:55;138.00;;;48.35;;
84682;SDS011;74905;44.124;18.116;2024-02-15T01:30:21;140.00;;;47.78;;
84682;SDS011;74905;44.124;18.116;2024-02-15T01:32:46;137.35;;;46.42;;
84682;SDS011;74905;44.124;18.116;2024-02-15T01:35:12;138.05;;;45.88;;
84682;SDS011;74905;44.124;18.116;2024-02-15T01:37:38;134.38;;;45.10;;
84682;SDS011;74905;44.124;18.116;2024-02-15T01:40:04;137.60;;;46.08;;
84682;SDS011;74905;44.124;18.116;2024-02-15T01:42:31;105.30;;;35.70;;
84682;SDS011;74905;44.124;18.116;2024-02-15T01:44:57;169.25;;;53.58;;
84682;SDS011;74905;44.124;18.116;2024-02-15T01:47:23;108.53;;;37.25;;
84682;SDS011;74905;44.124;18.116;2024-02-15T01:49:49;114.03;;;37.33;;
84682;SDS011;74905;44.124;18.116;2024-02-15T01:52:17;103.82;;;38.63;;
84682;SDS011;74905;44.124;18.116;2024-02-15T01:54:43;100.97;;;36.00;;
84682;SDS011;74905;44.124;18.116;2024-02-15T01:57:11;103.80;;;38.85;;
84682;SDS011;74905;44.124;18.116;2024-02-15T01:59:36;109.65;;;39.22;;
84682;SDS011;74905;44.124;18.116;2024-02-15T02:02:02;115.78;;;40.88;;
84682;SDS011;74905;44.124;18.116;2024-02-15T02:04:33;112.95;;;41.08;;
84682;SDS011;74905;44.124;18.116;2024-02-15T02:06:59;120.53;;;41.42;;
84682;SDS011;74905;44.124;18.116;2024-02-15T02:09:25;141.30;;;48.15;;
84682;SDS011;74905;44.124;18.116;2024-02-15T02:11:51;126.90;;;45.33;;
84682;SDS011;74905;44.124;18.116;2024-02-15T02:14:17;113.93;;;39.83;;
84682;SDS011;74905;44.124;18.116;2024-02-15T02:16:45;104.97;;;39.30;;
84682;SDS011;74905;44.124;18.116;2024-02-15T02:19:11;122.85;;;41.83;;
84682;SDS011;74905;44.124;18.116;2024-02-15T02:21:37;105.25;;;36.67;;
84682;SDS011;74905;44.124;18.116;2024-02-15T02:24:07;119.78;;;40.05;;
84682;SDS011;74905;44.124;18.116;2024-02-15T02:26:38;112.38;;;41.22;;
84682;SDS011;74905;44.124;18.116;2024-02-15T02:29:04;122.75;;;42.40;;
84682;SDS011;74905;44.124;18.116;2024-02-15T02:31:36;118.20;;;40.75;;
84682;SDS011;74905;44.124;18.116;2024-02-15T02:34:02;132.25;;;43.72;;
84682;SDS011;74905;44.124;18.116;2024-02-15T02:36:28;121.57;;;43.50;;
84682;SDS011;74905;44.124;18.116;2024-02-15T02:38:54;121.70;;;40.58;;
84682;SDS011;74905;44.124;18.116;2024-02-15T02:41:20;92.60;;;36.15;;
84682;SDS011;74905;44.124;18.116;2024-02-15T02:43:46;96.85;;;36.40;;
84682;SDS011;74905;44.124;18.116;2024-02-15T02:46:12;106.25;;;37.53;;
84682;SDS011;74905;44.124;18.116;2024-02-15T02:48:38;82.88;;;33.28;;
84682;SDS011;74905;44.124;18.116;2024-02-15T02:51:04;88.93;;;32.35;;
84682;SDS011;74905;44.124;18.116;2024-02-15T02:53:31;75.28;;;28.60;;
84682;SDS011;74905;44.124;18.116;2024-02-15T02:55:57;69.65;;;28.50;;
84682;SDS011;74905;44.124;18.116;2024-02-15T02:58:22;84.03;;;30.08;;
84682;SDS011;74905;44.124;18.116;2024-02-15T03:00:48;75.80;;;29.50;;
84682;SDS011;74905;44.124;18.116;2024-02-15T03:03:15;67.90;;;29.52;;
84682;SDS011;74905;44.124;18.116;2024-02-15T03:05:41;72.15;;;27.92;;
84682;SDS011;74905;44.124;18.116;2024-02-15T03:08:08;74.28;;;28.42;;
84682;SDS011;74905;44.124;18.116;2024-02-15T03:10:34;68.50;;;27.15;;
84682;SDS011;74905;44.124;18.116;2024-02-15T03:12:59;71.85;;;29.40;;
84682;SDS011;74905;44.124;18.116;2024-02-15T03:15:25;75.22;;;28.88;;
84682;SDS011;74905;44.124;18.116;2024-02-15T03:17:51;74.50;;;29.00;;
84682;SDS011;74905;44.124;18.116;2024-02-15T03:20:17;88.45;;;31.27;;
84682;SDS011;74905;44.124;18.116;2024-02-15T03:25:21;91.80;;;34.75;;
84682;SDS011;74905;44.124;18.116;2024-02-15T03:27:53;82.25;;;34.05;;
84682;SDS011;74905;44.124;18.116;2024-02-15T03:30:21;97.38;;;36.45;;
84682;SDS011;74905;44.124;18.116;2024-02-15T03:32:49;105.55;;;38.70;;
84682;SDS011;74905;44.124;18.116;2024-02-15T03:35:16;106.57;;;40.63;;
84682;SDS011;74905;44.124;18.116;2024-02-15T03:37:42;96.05;;;37.72;;
84682;SDS011;74905;44.124;18.116;2024-02-15T03:40:08;104.53;;;38.03;;
84682;SDS011;74905;44.124;18.116;2024-02-15T03:42:37;91.32;;;35.72;;
84682;SDS011;74905;44.124;18.116;2024-02-15T03:45:03;89.85;;;35.60;;
84682;SDS011;74905;44.124;18.116;2024-02-15T03:47:33;86.15;;;32.47;;
84682;SDS011;74905;44.124;18.116;2024-02-15T03:50:01;92.18;;;36.13;;
84682;SDS011;74905;44.124;18.116;2024-02-15T03:52:27;84.95;;;36.45;;
84682;SDS011;74905;44.124;18.116;2024-02-15T03:57:28;84.85;;;32.67;;
84682;SDS011;74905;44.124;18.116;2024-02-15T03:59:54;83.05;;;32.17;;
84682;SDS011;74905;44.124;18.116;2024-02-15T04:02:22;80.75;;;32.13;;
84682;SDS011;74905;44.124;18.116;2024-02-15T04:04:55;92.55;;;33.65;;
84682;SDS011;74905;44.124;18.116;2024-02-15T04:07:24;91.50;;;33.95;;
84682;SDS011;74905;44.124;18.116;2024-02-15T04:09:52;57.38;;;22.52;;
84682;SDS011;74905;44.124;18.116;2024-02-15T04:12:18;47.22;;;21.00;;
84682;SDS011;74905;44.124;18.116;2024-02-15T04:14:44;44.85;;;20.13;;
84682;SDS011;74905;44.124;18.116;2024-02-15T04:17:13;56.70;;;21.60;;
84682;SDS011;74905;44.124;18.116;2024-02-15T04:19:45;46.42;;;18.77;;
84682;SDS011;74905;44.124;18.116;2024-02-15T04:22:15;43.03;;;18.67;;
84682;SDS011;74905;44.124;18.116;2024-02-15T04:24:42;44.20;;;17.30;;
84682;SDS011;74905;44.124;18.116;2024-02-15T04:27:10;47.55;;;19.58;;
84682;SDS011;74905;44.124;18.116;2024-02-15T04:29:39;45.25;;;19.65;;
84682;SDS011;74905;44.124;18.116;2024-02-15T04:32:08;46.83;;;19.83;;
84682;SDS011;74905;44.124;18.116;2024-02-15T04:34:34;64.75;;;26.95;;
84682;SDS011;74905;44.124;18.116;2024-02-15T04:37:00;69.53;;;29.42;;
84682;SDS011;74905;44.124;18.116;2024-02-15T04:39:31;63.13;;;26.17;;
84682;SDS011;74905;44.124;18.116;2024-02-15T04:41:58;51.33;;;21.90;;
84682;SDS011;74905;44.124;18.116;2024-02-15T04:44:23;49.03;;;20.85;;
84682;SDS011;74905;44.124;18.116;2024-02-15T04:46:52;49.10;;;21.48;;
84682;SDS011;74905;44.124;18.116;2024-02-15T04:49:18;42.92;;;19.00;;
84682;SDS011;74905;44.124;18.116;2024-02-15T04:51:44;46.65;;;18.25;;
84682;SDS011;74905;44.124;18.116;2024-02-15T04:54:10;40.08;;;16.42;;
84682;SDS011;74905;44.124;18.116;2024-02-15T04:59:05;52.97;;;22.45;;
84682;SDS011;74905;44.124;18.116;2024-02-15T05:01:41;57.25;;;24.60;;
84682;SDS011;74905;44.124;18.116;2024-02-15T05:04:10;64.88;;;26.17;;
84682;SDS011;74905;44.124;18.116;2024-02-15T05:06:37;58.25;;;24.45;;
84682;SDS011;74905;44.124;18.116;2024-02-15T05:09:04;63.63;;;26.55;;
84682;SDS011;74905;44.124;18.116;2024-02-15T05:11:33;54.10;;;24.35;;
84682;SDS011;74905;44.124;18.116;2024-02-15T05:14:04;48.50;;;20.95;;
84682;SDS011;74905;44.124;18.116;2024-02-15T05:16:32;59.50;;;22.55;;
84682;SDS011;74905;44.124;18.116;2024-02-15T05:19:07;136.68;;;52.22;;
84682;SDS011;74905;44.124;18.116;2024-02-15T05:21:33;87.32;;;37.72;;
84682;SDS011;74905;44.124;18.116;2024-02-15T05:23:59;58.72;;;26.63;;
84682;SDS011;74905;44.124;18.116;2024-02-15T05:26:24;72.10;;;28.73;;
84682;SDS011;74905;44.124;18.116;2024-02-15T05:28:50;57.70;;;26.08;;
84682;SDS011;74905;44.124;18.116;2024-02-15T05:31:17;61.13;;;26.08;;
84682;SDS011;74905;44.124;18.116;2024-02-15T05:33:48;45.65;;;20.60;;
84682;SDS011;74905;44.124;18.116;2024-02-15T05:36:15;47.28;;;20.33;;
84682;SDS011;74905;44.124;18.116;2024-02-15T05:38:46;47.92;;;21.20;;
84682;SDS011;74905;44.124;18.116;2024-02-15T05:41:13;49.60;;;22.42;;
84682;SDS011;74905;44.124;18.116;2024-02-15T05:43:39;51.88;;;23.17;;
84682;SDS011;74905;44.124;18.116;2024-02-15T05:46:06;53.03;;;23.02;;
84682;SDS011;74905;44.124;18.116;2024-02-15T05:48:33;60.67;;;23.70;;
84682;SDS011;74905;44.124;18.116;2024-02-15T05:51:05;58.90;;;25.10;;
84682;SDS011;74905;44.124;18.116;2024-02-15T05:53:32;63.83;;;27.08;;
84682;SDS011;74905;44.124;18.116;2024-02-15T05:56:01;67.50;;;28.10;;
84682;SDS011;74905;44.124;18.116;2024-02-15T05:58:35;79.47;;;31.05;;
84682;SDS011;74905;44.124;18.116;2024-02-15T06:01:02;83.03;;;32.58;;
84682;SDS011;74905;44.124;18.116;2024-02-15T06:03:32;87.10;;;34.78;;
84682;SDS011;74905;44.124;18.116;2024-02-15T06:06:02;72.75;;;32.20;;
84682;SDS011;74905;44.124;18.116;2024-02-15T06:08:35;71.05;;;30.65;;
84682;SDS011;74905;44.124;18.116;2024-02-15T06:11:01;67.95;;;28.20;;
84682;SDS011;74905;44.124;18.116;2024-02-15T06:13:29;64.28;;;31.05;;
84682;SDS011;74905;44.124;18.116;2024-02-15T06:15:56;65.35;;;30.80;;
84682;SDS011;74905;44.124;18.116;2024-02-15T06:18:22;73.93;;;31.02;;
84682;SDS011;74905;44.124;18.116;2024-02-15T06:20:50;74.53;;;32.75;;
84682;SDS011;74905;44.124;18.116;2024-02-15T06:23:19;85.32;;;34.63;;
84682;SDS011;74905;44.124;18.116;2024-02-15T06:25:50;72.93;;;30.65;;
84682;SDS011;74905;44.124;18.116;2024-02-15T06:28:18;83.88;;;31.85;;
84682;SDS011;74905;44.124;18.116;2024-02-15T06:31:02;80.05;;;32.53;;
84682;SDS011;74905;44.124;18.116;2024-02-15T06:33:47;77.15;;;30.60;;
84682;SDS011;74905;44.124;18.116;2024-02-15T06:36:31;40.53;;;20.23;;
84682;SDS011;74905;44.124;18.116;2024-02-15T06:39:16;65.47;;;25.13;;
84682;SDS011;74905;44.124;18.116;2024-02-15T06:42:00;48.80;;;21.27;;
84682;SDS011;74905;44.124;18.116;2024-02-15T06:44:27;54.67;;;23.15;;
84682;SDS011;74905;44.124;18.116;2024-02-15T06:46:53;58.75;;;25.85;;
84682;SDS011;74905;44.124;18.116;2024-02-15T06:49:19;45.40;;;20.27;;
84682;SDS011;74905;44.124;18.116;2024-02-15T06:51:47;48.83;;;22.50;;
84682;SDS011;74905;44.124;18.116;2024-02-15T06:54:13;52.05;;;23.42;;
84682;SDS011;74905;44.124;18.116;2024-02-15T06:56:39;51.75;;;24.27;;
84682;SDS011;74905;44.124;18.116;2024-02-15T06:59:08;51.95;;;25.33;;
84682;SDS011;74905;44.124;18.116;2024-02-15T07:01:35;47.58;;;22.77;;
84682;SDS011;74905;44.124;18.116;2024-02-15T07:04:01;49.65;;;22.75;;
84682;SDS011;74905;44.124;18.116;2024-02-15T07:06:28;65.22;;;29.73;;
84682;SDS011;74905;44.124;18.116;2024-02-15T07:08:54;69.53;;;31.92;;
84682;SDS011;74905;44.124;18.116;2024-02-15T07:11:22;82.57;;;35.38;;
84682;SDS011;74905;44.124;18.116;2024-02-15T07:13:48;76.43;;;34.78;;
84682;SDS011;74905;44.124;18.116;2024-02-15T07:16:13;73.22;;;33.03;;
84682;SDS011;74905;44.124;18.116;2024-02-15T07:18:46;65.90;;;30.23;;
84682;SDS011;74905;44.124;18.116;2024-02-15T07:21:12;75.22;;;32.33;;
84682;SDS011;74905;44.124;18.116;2024-02-15T07:23:39;72.32;;;31.48;;
84682;SDS011;74905;44.124;18.116;2024-02-15T07:26:06;46.17;;;22.15;;
84682;SDS011;74905;44.124;18.116;2024-02-15T07:28:33;41.47;;;20.17;;
84682;SDS011;74905;44.124;18.116;2024-02-15T07:30:59;41.65;;;18.85;;
84682;SDS011;74905;44.124;18.116;2024-02-15T07:33:27;50.45;;;23.63;;
84682;SDS011;74905;44.124;18.116;2024-02-15T07:35:54;56.25;;;25.98;;
84682;SDS011;74905;44.124;18.116;2024-02-15T07:38:22;88.53;;;35.15;;
84682;SDS011;74905;44.124;18.116;2024-02-15T07:40:50;91.28;;;36.90;;
84682;SDS011;74905;44.124;18.116;2024-02-15T07:43:16;88.75;;;35.85;;
84682;SDS011;74905;44.124;18.116;2024-02-15T07:45:42;70.60;;;30.83;;
84682;SDS011;74905;44.124;18.116;2024-02-15T07:48:08;68.65;;;29.00;;
84682;SDS011;74905;44.124;18.116;2024-02-15T07:50:34;59.38;;;27.70;;
84682;SDS011;74905;44.124;18.116;2024-02-15T07:53:02;57.45;;;26.52;;
84682;SDS011;74905;44.124;18.116;2024-02-15T07:55:30;55.03;;;26.08;;
84682;SDS011;74905;44.124;18.116;2024-02-15T07:57:56;59.25;;;25.35;;
84682;SDS011;74905;44.124;18.116;2024-02-15T08:00:23;83.43;;;26.63;;
84682;SDS011;74905;44.124;18.116;2024-02-15T08:02:52;72.63;;;24.88;;
84682;SDS011;74905;44.124;18.116;2024-02-15T08:05:18;63.90;;;25.10;;
84682;SDS011;74905;44.124;18.116;2024-02-15T08:07:44;65.03;;;23.38;;
84682;SDS011;74905;44.124;18.116;2024-02-15T08:10:11;55.25;;;23.30;;
84682;SDS011;74905;44.124;18.116;2024-02-15T08:12:40;49.90;;;21.52;;
84682;SDS011;74905;44.124;18.116;2024-02-15T08:15:07;49.95;;;20.90;;
84682;SDS011;74905;44.124;18.116;2024-02-15T08:17:43;45.90;;;22.27;;
84682;SDS011;74905;44.124;18.116;2024-02-15T08:20:11;38.50;;;21.05;;
84682;SDS011;74905;44.124;18.116;2024-02-15T08:22:37;42.72;;;20.80;;
84682;SDS011;74905;44.124;18.116;2024-02-15T08:25:07;38.58;;;19.40;;
84682;SDS011;74905;44.124;18.116;2024-02-15T08:27:42;38.05;;;19.42;;
84682;SDS011;74905;44.124;18.116;2024-02-15T08:30:15;41.15;;;19.58;;
84682;SDS011;74905;44.124;18.116;2024-02-15T08:32:41;44.72;;;18.85;;
84682;SDS011;74905;44.124;18.116;2024-02-15T08:35:08;43.50;;;19.75;;
84682;SDS011;74905;44.124;18.116;2024-02-15T08:37:35;41.13;;;20.63;;
84682;SDS011;74905;44.124;18.116;2024-02-15T08:40:04;40.63;;;19.02;;
84682;SDS011;74905;44.124;18.116;2024-02-15T08:42:36;40.15;;;19.52;;
84682;SDS011;74905;44.124;18.116;2024-02-15T08:45:05;39.40;;;20.20;;
84682;SDS011;74905;44.124;18.116;2024-02-15T08:47:37;32.47;;;18.05;;
84682;SDS011;74905;44.124;18.116;2024-02-15T08:50:05;29.35;;;16.30;;
84682;SDS011;74905;44.124;18.116;2024-02-15T08:52:31;46.42;;;18.42;;
84682;SDS011;74905;44.124;18.116;2024-02-15T08:54:57;36.45;;;18.40;;
84682;SDS011;74905;44.124;18.116;2024-02-15T08:57:24;38.15;;;18.05;;
84682;SDS011;74905;44.124;18.116;2024-02-15T08:59:51;36.13;;;18.58;;
84682;SDS011;74905;44.124;18.116;2024-02-15T09:02:17;39.03;;;17.85;;
84682;SDS011;74905;44.124;18.116;2024-02-15T09:04:44;44.15;;;18.77;;
84682;SDS011;74905;44.124;18.116;2024-02-15T09:07:13;34.72;;;17.60;;
84682;SDS011;74905;44.124;18.116;2024-02-15T09:09:52;31.40;;;17.92;;
84682;SDS011;74905;44.124;18.116;2024-02-15T09:12:17;32.35;;;17.17;;
84682;SDS011;74905;44.124;18.116;2024-02-15T09:14:43;31.58;;;17.45;;
84682;SDS011;74905;44.124;18.116;2024-02-15T09:17:09;38.92;;;19.58;;
84682;SDS011;74905;44.124;18.116;2024-02-15T09:19:35;33.03;;;18.20;;
84682;SDS011;74905;44.124;18.116;2024-02-15T09:22:01;27.23;;;15.65;;
84682;SDS011;74905;44.124;18.116;2024-02-15T09:24:30;29.08;;;15.30;;
84682;SDS011;74905;44.124;18.116;2024-02-15T09:26:56;23.35;;;13.73;;
84682;SDS011;74905;44.124;18.116;2024-02-15T09:29:22;27.45;;;15.30;;
84682;SDS011;74905;44.124;18.116;2024-02-15T09:31:49;29.15;;;16.40;;
84682;SDS011;74905;44.124;18.116;2024-02-15T09:34:15;27.98;;;15.65;;
84682;SDS011;74905;44.124;18.116;2024-02-15T09:36:41;29.20;;;15.57;;
84682;SDS011;74905;44.124;18.116;2024-02-15T09:39:06;27.77;;;14.90;;
84682;SDS011;74905;44.124;18.116;2024-02-15T09:41:32;27.20;;;14.82;;
84682;SDS011;74905;44.124;18.116;2024-02-15T09:43:59;33.35;;;18.63;;
84682;SDS011;74905;44.124;18.116;2024-02-15T09:46:26;29.15;;;17.65;;
84682;SDS011;74905;44.124;18.116;2024-02-15T09:48:53;40.03;;;21.45;;
84682;SDS011;74905;44.124;18.116;2024-02-15T09:51:27;37.13;;;20.13;;
84682;SDS011;74905;44.124;18.116;2024-02-15T09:53:56;39.30;;;20.48;;
84682;SDS011;74905;44.124;18.116;2024-02-15T09:56:24;35.00;;;18.98;;
84682;SDS011;74905;44.124;18.116;2024-02-15T09:58:51;28.50;;;17.60;;
84682;SDS011;74905;44.124;18.116;2024-02-15T10:01:16;30.52;;;18.23;;
84682;SDS011;74905;44.124;18.116;2024-02-15T10:03:48;29.60;;;16.05;;
84682;SDS011;74905;44.124;18.116;2024-02-15T10:06:18;27.83;;;16.60;;
84682;SDS011;74905;44.124;18.116;2024-02-15T10:08:45;36.70;;;17.90;;
84682;SDS011;74905;44.124;18.116;2024-02-15T10:11:12;30.25;;;17.65;;
84682;SDS011;74905;44.124;18.116;2024-02-15T10:13:41;27.00;;;16.20;;
84682;SDS011;74905;44.124;18.116;2024-02-15T10:16:16;28.25;;;15.88;;
84682;SDS011;74905;44.124;18.116;2024-02-15T10:18:45;29.42;;;16.35;;
84682;SDS011;74905;44.124;18.116;2024-02-15T10:21:27;25.27;;;14.13;;
84682;SDS011;74905;44.124;18.116;2024-02-15T10:24:07;23.92;;;14.02;;
84682;SDS011;74905;44.124;18.116;2024-02-15T10:26:34;22.25;;;13.43;;
84682;SDS011;74905;44.124;18.116;2024-02-15T10:29:04;20.65;;;11.88;;
84682;SDS011;74905;44.124;18.116;2024-02-15T10:31:40;22.17;;;13.85;;
84682;SDS011;74905;44.124;18.116;2024-02-15T10:34:18;27.17;;;14.20;;
84682;SDS011;74905;44.124;18.116;2024-02-15T10:36:45;27.88;;;14.32;;
84682;SDS011;74905;44.124;18.116;2024-02-15T10:39:17;32.33;;;14.60;;
84682;SDS011;74905;44.124;18.116;2024-02-15T10:41:51;23.02;;;13.55;;
84682;SDS011;74905;44.124;18.116;2024-02-15T10:44:21;25.17;;;14.50;;
84682;SDS011;74905;44.124;18.116;2024-02-15T10:46:49;21.98;;;13.90;;
84682;SDS011;74905;44.124;18.116;2024-02-15T10:49:18;24.08;;;13.07;;
84682;SDS011;74905;44.124;18.116;2024-02-15T10:51:48;23.52;;;13.23;;
84682;SDS011;74905;44.124;18.116;2024-02-15T10:54:19;29.55;;;14.93;;
84682;SDS011;74905;44.124;18.116;2024-02-15T10:56:58;24.30;;;12.82;;
84682;SDS011;74905;44.124;18.116;2024-02-15T10:59:37;21.83;;;11.52;;
84682;SDS011;74905;44.124;18.116;2024-02-15T11:04:45;16.13;;;8.75;;
84682;SDS011;74905;44.124;18.116;2024-02-15T11:07:19;18.50;;;8.70;;
84682;SDS011;74905;44.124;18.116;2024-02-15T11:09:47;16.83;;;9.85;;
84682;SDS011;74905;44.124;18.116;2024-02-15T11:12:13;16.20;;;9.38;;
84682;SDS011;74905;44.124;18.116;2024-02-15T11:14:45;10.82;;;6.40;;
84682;SDS011;74905;44.124;18.116;2024-02-15T11:17:11;13.20;;;7.18;;
84682;SDS011;74905;44.124;18.116;2024-02-15T11:19:57;11.55;;;6.13;;
84682;SDS011;74905;44.124;18.116;2024-02-15T11:24:53;13.43;;;6.90;;
84682;SDS011;74905;44.124;18.116;2024-02-15T11:27:25;14.70;;;7.90;;
84682;SDS011;74905;44.124;18.116;2024-02-15T11:29:53;8.25;;;4.47;;
84682;SDS011;74905;44.124;18.116;2024-02-15T11:40:18;14.55;;;8.13;;
84682;SDS011;74905;44.124;18.116;2024-02-15T11:42:45;17.40;;;9.68;;
84682;SDS011;74905;44.124;18.116;2024-02-15T11:45:11;16.85;;;9.63;;
84682;SDS011;74905;44.124;18.116;2024-02-15T11:47:38;17.60;;;9.75;;
84682;SDS011;74905;44.124;18.116;2024-02-15T11:50:08;17.75;;;10.02;;
84682;SDS011;74905;44.124;18.116;2024-02-15T11:52:40;17.92;;;9.73;;
84682;SDS011;74905;44.124;18.116;2024-02-15T11:55:08;17.90;;;10.30;;
84682;SDS011;74905;44.124;18.116;2024-02-15T11:57:36;18.15;;;10.73;;
84682;SDS011;74905;44.124;18.116;2024-02-15T12:00:23;18.33;;;11.20;;
84682;SDS011;74905;44.124;18.116;2024-02-15T12:03:08;22.10;;;11.15;;
84682;SDS011;74905;44.124;18.116;2024-02-15T12:05:56;21.13;;;10.85;;
84682;SDS011;74905;44.124;18.116;2024-02-15T12:08:43;20.05;;;11.38;;
84682;SDS011;74905;44.124;18.116;2024-02-15T12:11:39;22.80;;;11.10;;
84682;SDS011;74905;44.124;18.116;2024-02-15T12:14:24;19.25;;;10.50;;
84682;SDS011;74905;44.124;18.116;2024-02-15T12:17:09;17.88;;;11.23;;
84682;SDS011;74905;44.124;18.116;2024-02-15T12:19:55;18.10;;;10.93;;
84682;SDS011;74905;44.124;18.116;2024-02-15T12:22:25;22.33;;;11.95;;
84682;SDS011;74905;44.124;18.116;2024-02-15T12:24:57;19.20;;;11.32;;
84682;SDS011;74905;44.124;18.116;2024-02-15T12:27:25;20.77;;;11.95;;
84682;SDS011;74905;44.124;18.116;2024-02-15T12:29:53;15.10;;;11.77;;
84682;SDS011;74905;44.124;18.116;2024-02-15T12:32:20;18.42;;;12.48;;
84682;SDS011;74905;44.124;18.116;2024-02-15T12:34:52;22.80;;;14.85;;
84682;SDS011;74905;44.124;18.116;2024-02-15T12:37:21;31.38;;;16.00;;
84682;SDS011;74905;44.124;18.116;2024-02-15T12:39:49;24.30;;;15.85;;
84682;SDS011;74905;44.124;18.116;2024-02-15T12:42:18;26.45;;;15.07;;
84682;SDS011;74905;44.124;18.116;2024-02-15T12:44:48;22.60;;;13.63;;
84682;SDS011;74905;44.124;18.116;2024-02-15T12:47:20;23.20;;;15.15;;
84682;SDS011;74905;44.124;18.116;2024-02-15T12:49:50;23.02;;;14.65;;
84682;SDS011;74905;44.124;18.116;2024-02-15T12:55:10;21.13;;;13.55;;
84682;SDS011;74905;44.124;18.116;2024-02-15T12:57:37;22.33;;;14.15;;
84682;SDS011;74905;44.124;18.116;2024-02-15T13:00:10;24.13;;;13.93;;
84682;SDS011;74905;44.124;18.116;2024-02-15T13:02:38;26.13;;;13.75;;
84682;SDS011;74905;44.124;18.116;2024-02-15T13:05:05;25.20;;;14.32;;
84682;SDS011;74905;44.124;18.116;2024-02-15T13:07:33;26.00;;;14.85;;
84682;SDS011;74905;44.124;18.116;2024-02-15T13:10:00;40.45;;;24.98;;
84682;SDS011;74905;44.124;18.116;2024-02-15T13:12:26;28.45;;;20.00;;
84682;SDS011;74905;44.124;18.116;2024-02-15T13:14:53;35.10;;;23.95;;
84682;SDS011;74905;44.124;18.116;2024-02-15T13:17:19;30.35;;;21.58;;
84682;SDS011;74905;44.124;18.116;2024-02-15T13:19:45;20.13;;;13.90;;
84682;SDS011;74905;44.124;18.116;2024-02-15T13:22:17;18.95;;;13.13;;
84682;SDS011;74905;44.124;18.116;2024-02-15T13:24:44;19.45;;;13.57;;
84682;SDS011;74905;44.124;18.116;2024-02-15T13:27:10;19.17;;;14.32;;
84682;SDS011;74905;44.124;18.116;2024-02-15T13:29:38;22.15;;;15.45;;
84682;SDS011;74905;44.124;18.116;2024-02-15T13:32:09;24.23;;;15.73;;
84682;SDS011;74905;44.124;18.116;2024-02-15T13:34:50;21.83;;;14.77;;
84682;SDS011;74905;44.124;18.116;2024-02-15T13:37:17;16.08;;;11.77;;
84682;SDS011;74905;44.124;18.116;2024-02-15T13:39:48;17.95;;;13.93;;
84682;SDS011;74905;44.124;18.116;2024-02-15T13:42:15;23.42;;;13.95;;
84682;SDS011;74905;44.124;18.116;2024-02-15T13:44:44;21.20;;;15.40;;
84682;SDS011;74905;44.124;18.116;2024-02-15T13:47:13;17.30;;;12.63;;
84682;SDS011;74905;44.124;18.116;2024-02-15T13:49:42;19.70;;;11.82;;
84682;SDS011;74905;44.124;18.116;2024-02-15T13:52:08;16.58;;;11.40;;
84682;SDS011;74905;44.124;18.116;2024-02-15T13:54:36;17.98;;;12.52;;
84682;SDS011;74905;44.124;18.116;2024-02-15T13:57:02;17.58;;;11.50;;
84682;SDS011;74905;44.124;18.116;2024-02-15T13:59:30;19.25;;;12.10;;
84682;SDS011;74905;44.124;18.116;2024-02-15T14:01:55;21.73;;;13.35;;
84682;SDS011;74905;44.124;18.116;2024-02-15T14:04:21;17.08;;;12.48;;
84682;SDS011;74905;44.124;18.116;2024-02-15T14:06:47;20.63;;;13.50;;
84682;SDS011;74905;44.124;18.116;2024-02-15T14:09:14;16.60;;;12.45;;
84682;SDS011;74905;44.124;18.116;2024-02-15T14:11:39;23.08;;;15.65;;
84682;SDS011;74905;44.124;18.116;2024-02-15T14:14:05;24.42;;;16.65;;
84682;SDS011;74905;44.124;18.116;2024-02-15T14:16:31;27.83;;;19.17;;
84682;SDS011;74905;44.124;18.116;2024-02-15T14:18:59;27.30;;;19.13;;
84682;SDS011;74905;44.124;18.116;2024-02-15T14:21:29;22.95;;;14.88;;
84682;SDS011;74905;44.124;18.116;2024-02-15T14:24:04;17.90;;;13.10;;
84682;SDS011;74905;44.124;18.116;2024-02-15T14:26:32;26.98;;;17.33;;
84682;SDS011;74905;44.124;18.116;2024-02-15T14:28:57;19.58;;;14.32;;
84682;SDS011;74905;44.124;18.116;2024-02-15T14:31:26;19.13;;;13.88;;
84682;SDS011;74905;44.124;18.116;2024-02-15T14:34:10;21.52;;;13.77;;
84682;SDS011;74905;44.124;18.116;2024-02-15T14:36:36;18.55;;;14.25;;
84682;SDS011;74905;44.124;18.116;2024-02-15T14:39:04;20.20;;;14.00;;